createdAt,value
2017-11-09T00:02:24.324Z,99775.26
2017-11-09T00:05:04.281Z,99762.22
2017-11-09T00:07:36.869Z,99776.45
2017-11-09T00:10:08.655Z,99779.53
2017-11-09T00:12:43.177Z,99770.19
2017-11-09T00:15:15.154Z,99771.92
2017-11-09T00:17:48.145Z,99764.50
2017-11-09T00:20:23.626Z,99771.41
2017-11-09T00:22:56.364Z,99777.14
2017-11-09T00:25:28.990Z,99771.26
2017-11-09T00:28:01.613Z,99767.16
2017-11-09T00:30:33.642Z,99771.27
2017-11-09T00:33:04.986Z,99765.27
2017-11-09T00:35:38.736Z,99766.73
2017-11-09T00:38:11.254Z,99767.94
2017-11-09T00:40:42.773Z,99773.64
2017-11-09T00:43:14.376Z,99765.52
2017-11-09T00:45:46.351Z,99764.31
2017-11-09T00:48:18.191Z,99764.08
2017-11-09T00:50:49.676Z,99757.94
2017-11-09T00:53:20.965Z,99769.25
2017-11-09T00:55:52.829Z,99763.38
2017-11-09T00:58:27.851Z,99758.05
2017-11-09T01:00:59.289Z,99768.45
2017-11-09T01:03:30.723Z,99767.91
2017-11-09T01:06:01.966Z,99763.64
2017-11-09T01:08:34.643Z,99766.18
2017-11-09T01:11:12.301Z,99762.84
2017-11-09T01:13:44.344Z,99765.48
2017-11-09T01:16:15.433Z,99767.23
2017-11-09T01:18:48.491Z,99759.22
2017-11-09T01:21:19.903Z,99767.06
2017-11-09T01:23:52.018Z,99765.08
2017-11-09T01:26:24.179Z,99765.97
2017-11-09T01:28:56.114Z,99767.27
2017-11-09T01:31:27.472Z,99769.41
2017-11-09T01:33:58.894Z,99764.35
2017-11-09T01:36:31.296Z,99762.08
2017-11-09T01:39:03.076Z,99760.35
2017-11-09T01:41:34.127Z,99763.54
2017-11-09T01:44:06.722Z,99762.59
2017-11-09T01:46:38.185Z,99764.86
2017-11-09T01:49:09.407Z,99764.28
2017-11-09T01:51:42.294Z,99763.36
2017-11-09T01:54:14.054Z,99762.14
2017-11-09T01:56:45.346Z,99762.55
2017-11-09T01:59:16.884Z,99758.84
2017-11-09T02:01:51.173Z,99758.94
2017-11-09T02:04:22.512Z,99756.13
2017-11-09T02:06:53.930Z,99752.28
2017-11-09T02:09:25.285Z,99757.98
2017-11-09T02:11:56.697Z,99757.33
2017-11-09T02:14:28.388Z,99763.30
2017-11-09T02:16:59.637Z,99760.23
2017-11-09T02:19:31.288Z,99759.44
2017-11-09T02:22:03.201Z,99765.83
2017-11-09T02:24:35.113Z,99768.36
2017-11-09T02:27:06.376Z,99770.34
2017-11-09T02:29:38.973Z,99768.09
2017-11-09T02:32:10.457Z,99775.00
2017-11-09T02:34:41.545Z,99768.61
2017-11-09T02:37:12.781Z,99775.27
2017-11-09T02:39:43.842Z,99779.66
2017-11-09T02:42:14.927Z,99790.42
2017-11-09T02:44:47.150Z,99776.86
2017-11-09T02:47:18.258Z,99785.64
2017-11-09T02:49:49.379Z,99787.61
2017-11-09T02:52:20.809Z,99783.62
2017-11-09T02:54:52.310Z,99786.94
2017-11-09T02:57:25.707Z,99786.66
2017-11-09T02:59:59.510Z,99788.77
2017-11-09T03:02:32.097Z,99787.20
2017-11-09T03:05:05.212Z,99780.78
2017-11-09T03:07:37.474Z,99784.11
2017-11-09T03:10:36.050Z,99782.39
2017-11-09T03:13:09.078Z,99784.87
2017-11-09T03:15:41.247Z,99793.12
2017-11-09T03:18:13.419Z,99795.09
2017-11-09T03:20:45.237Z,99796.83
2017-11-09T03:23:16.875Z,99796.92
2017-11-09T03:25:48.211Z,99799.33
2017-11-09T03:28:19.985Z,99803.56
2017-11-09T03:30:51.271Z,99796.66
2017-11-09T03:33:22.899Z,99801.44
2017-11-09T03:35:54.196Z,99799.55
2017-11-09T03:38:25.372Z,99800.73
2017-11-09T03:40:56.886Z,99800.89
2017-11-09T03:43:27.933Z,99803.92
2017-11-09T03:45:59.505Z,99805.39
2017-11-09T03:48:32.398Z,99797.25
2017-11-09T03:51:03.713Z,99801.41
2017-11-09T03:53:36.302Z,99797.70
2017-11-09T03:56:07.759Z,99800.66
2017-11-09T03:58:39.197Z,99800.94
2017-11-09T04:01:10.189Z,99799.08
2017-11-09T04:03:41.690Z,99809.98
2017-11-09T04:06:12.882Z,99806.00
2017-11-09T04:08:43.858Z,99815.70
2017-11-09T04:11:16.090Z,99809.06
2017-11-09T04:13:47.062Z,99811.56
2017-11-09T04:16:18.985Z,99794.64
2017-11-09T04:18:50.361Z,99816.36
2017-11-09T04:21:21.904Z,99820.84
2017-11-09T04:23:53.355Z,99826.55
2017-11-09T04:26:24.365Z,99823.98
2017-11-09T04:28:55.901Z,99822.52
2017-11-09T04:31:26.879Z,99825.05
2017-11-09T04:33:58.046Z,99821.43
2017-11-09T04:36:29.195Z,99821.83
2017-11-09T04:39:00.513Z,99830.30
2017-11-09T04:41:32.072Z,99829.89
2017-11-09T04:44:03.803Z,99834.80
2017-11-09T04:46:34.828Z,99837.30
2017-11-09T04:49:05.846Z,99832.92
2017-11-09T04:51:37.206Z,99834.89
2017-11-09T04:54:11.587Z,99837.77
2017-11-09T04:56:43.085Z,99840.42
2017-11-09T04:59:14.759Z,99835.91
2017-11-09T05:01:46.446Z,99839.90
2017-11-09T05:04:18.074Z,99840.55
2017-11-09T05:06:49.162Z,99844.16
2017-11-09T05:09:20.204Z,99845.61
2017-11-09T05:11:51.366Z,99850.86
2017-11-09T05:14:22.763Z,99855.92
2017-11-09T05:16:57.860Z,99855.92
2017-11-09T05:19:33.511Z,99852.62
2017-11-09T05:22:07.641Z,99856.64
2017-11-09T05:24:40.683Z,99869.55
2017-11-09T05:27:12.667Z,99856.77
2017-11-09T05:29:47.965Z,99860.13
2017-11-09T05:32:19.869Z,99862.39
2017-11-09T05:34:51.393Z,99848.92
2017-11-09T05:37:22.812Z,99861.42
2017-11-09T05:39:53.884Z,99860.47
2017-11-09T05:42:25.950Z,99861.92
2017-11-09T05:44:57.540Z,99868.81
2017-11-09T05:47:28.863Z,99864.39
2017-11-09T05:50:00.429Z,99866.00
2017-11-09T05:52:31.662Z,99871.16
2017-11-09T05:55:03.724Z,99869.23
2017-11-09T05:57:35.034Z,99871.36
2017-11-09T06:00:06.981Z,99872.94
2017-11-09T06:02:38.415Z,99872.25
2017-11-09T06:05:11.318Z,99864.37
2017-11-09T06:07:44.197Z,99875.95
2017-11-09T06:10:16.226Z,99874.19
2017-11-09T06:12:47.631Z,99879.50
2017-11-09T06:15:19.414Z,99875.52
2017-11-09T06:17:51.537Z,99878.14
2017-11-09T06:20:24.486Z,99873.34
2017-11-09T06:22:55.722Z,99884.13
2017-11-09T06:25:27.070Z,99885.34
2017-11-09T06:27:58.334Z,99888.71
2017-11-09T06:30:29.700Z,99893.54
2017-11-09T06:33:00.999Z,99890.05
2017-11-09T06:35:32.651Z,99893.95
2017-11-09T06:38:04.177Z,99893.86
2017-11-09T06:40:35.407Z,99894.17
2017-11-09T06:43:06.425Z,99892.59
2017-11-09T06:45:38.434Z,99891.80
2017-11-09T06:48:10.057Z,99895.01
2017-11-09T06:50:42.019Z,99897.27
2017-11-09T06:53:13.199Z,99899.92
2017-11-09T06:55:45.165Z,99904.55
2017-11-09T06:58:17.443Z,99902.30
2017-11-09T07:00:48.641Z,99898.81
2017-11-09T07:03:19.911Z,99913.95
2017-11-09T07:05:51.980Z,99912.61
2017-11-09T07:08:23.662Z,99907.92
2017-11-09T07:10:54.715Z,99917.48
2017-11-09T07:13:26.103Z,99915.20
2017-11-09T07:15:57.222Z,99913.59
2017-11-09T07:18:29.243Z,99915.17
2017-11-09T07:21:00.722Z,99922.70
2017-11-09T07:23:31.875Z,99921.52
2017-11-09T07:26:03.254Z,99921.77
2017-11-09T07:28:34.696Z,99921.30
2017-11-09T07:31:06.385Z,99926.13
2017-11-09T07:33:37.642Z,99922.34
2017-11-09T07:36:09.264Z,99928.05
2017-11-09T07:38:40.494Z,99934.30
2017-11-09T07:41:11.563Z,99936.95
2017-11-09T07:43:43.007Z,99934.14
2017-11-09T07:46:14.143Z,99934.78
2017-11-09T07:48:46.014Z,99929.34
2017-11-09T07:51:17.529Z,99926.56
2017-11-09T07:53:50.407Z,99934.81
2017-11-09T07:56:21.909Z,99936.74
2017-11-09T07:59:00.253Z,99932.80
2017-11-09T08:01:31.889Z,99930.70
2017-11-09T08:04:02.902Z,99936.21
2017-11-09T08:06:34.142Z,99935.47
2017-11-09T08:09:05.969Z,99938.97
2017-11-09T08:11:37.711Z,99936.72
2017-11-09T08:14:09.557Z,99943.11
2017-11-09T08:16:41.173Z,99941.02
2017-11-09T08:19:12.543Z,99941.17
2017-11-09T08:21:44.035Z,99933.84
2017-11-09T08:24:26.029Z,99947.57
2017-11-09T08:27:11.866Z,99938.27
2017-11-09T08:29:52.430Z,99938.27
2017-11-09T08:32:34.254Z,99939.34
2017-11-09T08:35:05.974Z,99937.77
2017-11-09T08:37:37.148Z,99942.44
2017-11-09T08:40:09.020Z,99942.16
2017-11-09T08:42:41.740Z,99938.17
2017-11-09T08:45:15.342Z,99950.56
2017-11-09T08:47:48.463Z,99945.38
2017-11-09T08:50:22.172Z,99943.92
2017-11-09T08:52:54.584Z,99939.53
2017-11-09T08:55:26.262Z,99944.23
2017-11-09T08:57:57.488Z,99939.84
2017-11-09T09:00:29.323Z,99947.70
2017-11-09T09:03:01.164Z,99941.88
2017-11-09T09:05:32.463Z,99942.00
2017-11-09T09:08:03.613Z,99940.17
2017-11-09T09:10:35.351Z,99930.47
2017-11-09T09:13:08.351Z,99935.54
2017-11-09T09:15:40.637Z,99936.89
2017-11-09T09:18:12.558Z,99935.96
2017-11-09T09:20:44.057Z,99931.10
2017-11-09T09:23:15.476Z,99934.70
2017-11-09T09:25:47.021Z,99935.06
2017-11-09T09:28:20.155Z,99928.70
2017-11-09T09:30:52.233Z,99932.46
2017-11-09T09:33:32.544Z,99937.55
2017-11-09T09:36:13.805Z,99941.43
2017-11-09T09:39:13.213Z,99937.16
2017-11-09T09:41:46.594Z,99939.56
2017-11-09T09:44:24.438Z,99945.28
2017-11-09T09:46:56.388Z,99934.66
2017-11-09T09:49:28.975Z,99936.91
2017-11-09T09:52:00.278Z,99938.78
2017-11-09T09:54:41.348Z,99939.16
2017-11-09T09:57:17.830Z,99940.63
2017-11-09T09:59:54.668Z,99941.42
2017-11-09T10:02:27.444Z,99941.30
2017-11-09T10:07:54.421Z,99936.61
2017-11-09T10:10:26.219Z,99943.97
2017-11-09T10:12:57.768Z,99934.88
2017-11-09T10:15:29.323Z,99944.62
2017-11-09T10:18:01.296Z,99938.47
2017-11-09T10:20:32.764Z,99939.27
2017-11-09T10:23:04.483Z,99933.01
2017-11-09T10:25:45.618Z,99928.09
2017-11-09T10:28:19.344Z,99927.55
2017-11-09T10:30:58.420Z,99926.61
2017-11-09T10:33:30.532Z,99930.32
2017-11-09T10:36:02.349Z,99924.87
2017-11-09T10:38:33.836Z,99930.85
2017-11-09T10:41:07.054Z,99919.14
2017-11-09T10:43:38.829Z,99926.56
2017-11-09T10:46:10.316Z,99926.47
2017-11-09T10:48:43.433Z,99916.08
2017-11-09T10:51:15.189Z,99919.55
2017-11-09T10:53:50.161Z,99918.50
2017-11-09T10:56:21.757Z,99910.24
2017-11-09T10:58:52.966Z,99919.06
2017-11-09T11:01:24.908Z,99920.16
2017-11-09T11:03:56.541Z,99910.56
2017-11-09T11:06:28.825Z,99916.56
2017-11-09T11:09:05.613Z,99905.92
2017-11-09T11:11:37.113Z,99906.08
2017-11-09T11:14:08.283Z,99909.96
2017-11-09T11:16:39.800Z,99909.70
2017-11-09T11:19:11.938Z,99900.52
2017-11-09T11:21:43.642Z,99905.85
2017-11-09T11:24:15.017Z,99898.38
2017-11-09T11:26:47.054Z,99900.11
2017-11-09T11:29:23.361Z,99898.12
2017-11-09T11:31:59.666Z,99893.05
2017-11-09T11:34:32.630Z,99906.80
2017-11-09T11:37:05.593Z,99914.27
2017-11-09T11:39:37.852Z,99909.45
2017-11-09T11:42:09.590Z,99911.06
2017-11-09T11:44:42.319Z,99909.19
2017-11-09T11:47:14.576Z,99910.41
2017-11-09T11:49:46.816Z,99909.58
2017-11-09T11:52:19.831Z,99911.70
2017-11-09T11:54:51.856Z,99911.16
2017-11-09T11:57:24.057Z,99911.56
2017-11-09T11:59:56.112Z,99902.90
2017-11-09T12:02:29.871Z,99901.14
2017-11-09T12:05:02.644Z,99910.04
2017-11-09T12:07:35.922Z,99912.03
2017-11-09T12:10:18.853Z,99912.80
2017-11-09T12:12:50.255Z,99914.53
2017-11-09T12:15:22.213Z,99914.78
2017-11-09T12:17:54.535Z,99917.17
2017-11-09T12:20:26.447Z,99915.84
2017-11-09T12:23:02.266Z,99911.20
2017-11-09T12:25:34.581Z,99909.86
2017-11-09T12:28:12.259Z,99905.91
2017-11-09T12:30:48.096Z,99916.14
2017-11-09T12:33:20.038Z,99907.13
2017-11-09T12:35:53.460Z,99915.63
2017-11-09T12:38:25.524Z,99922.16
2017-11-09T12:40:58.506Z,99913.89
2017-11-09T12:43:30.258Z,99916.16
2017-11-09T12:46:02.843Z,99918.17
2017-11-09T12:48:35.111Z,99922.16
2017-11-09T12:51:09.582Z,99911.38
2017-11-09T12:53:42.590Z,99911.23
2017-11-09T12:56:13.859Z,99915.87
2017-11-09T12:58:45.305Z,99916.03
2017-11-09T13:01:16.810Z,99916.27
2017-11-09T13:03:49.219Z,99927.28
2017-11-09T13:06:28.220Z,99921.42
2017-11-09T13:09:00.765Z,99922.86
2017-11-09T13:11:36.206Z,99922.86
2017-11-09T13:14:08.075Z,99921.51
2017-11-09T13:16:39.814Z,99923.62
2017-11-09T13:19:11.019Z,99922.55
2017-11-09T13:21:43.469Z,99921.47
2017-11-09T13:24:14.991Z,99911.93
2017-11-09T13:26:46.970Z,99917.00
2017-11-09T13:29:19.055Z,99919.51
2017-11-09T13:31:51.593Z,99922.30
2017-11-09T13:34:26.356Z,99918.84
2017-11-09T13:36:58.262Z,99922.39
2017-11-09T13:39:31.147Z,99923.05
2017-11-09T13:42:03.918Z,99923.02
2017-11-09T13:44:37.750Z,99917.95
2017-11-09T13:47:10.330Z,99928.84
2017-11-09T13:49:42.635Z,99925.22
2017-11-09T13:52:14.704Z,99932.52
2017-11-09T13:54:46.600Z,99923.34
2017-11-09T13:57:20.116Z,99923.34
2017-11-09T13:59:51.816Z,99920.44
2017-11-09T14:02:23.709Z,99912.98
2017-11-09T14:04:55.354Z,99922.19
2017-11-09T14:07:27.977Z,99916.34
2017-11-09T14:10:04.757Z,99916.66
2017-11-09T14:12:36.672Z,99908.30
2017-11-09T14:15:08.499Z,99915.19
2017-11-09T14:17:41.383Z,99915.38
2017-11-09T14:20:15.113Z,99914.31
2017-11-09T14:22:48.465Z,99914.06
2017-11-09T14:25:20.768Z,99911.01
2017-11-09T14:27:52.717Z,99917.13
2017-11-09T14:30:24.125Z,99912.73
2017-11-09T14:32:56.678Z,99904.20
2017-11-09T14:35:28.792Z,99906.59
2017-11-09T14:38:03.880Z,99901.00
2017-11-09T14:40:38.951Z,99903.53
2017-11-09T14:43:11.598Z,99898.87
2017-11-09T14:45:44.803Z,99903.11
2017-11-09T14:48:18.897Z,99903.61
2017-11-09T14:50:51.075Z,99909.85
2017-11-09T14:53:24.622Z,99910.78
2017-11-09T14:56:03.371Z,99910.91
2017-11-09T14:58:37.778Z,99913.02
2017-11-09T15:01:17.062Z,99915.11
2017-11-09T15:03:51.546Z,99914.59
2017-11-09T15:06:25.838Z,99918.95
2017-11-09T15:09:02.580Z,99923.06
2017-11-09T15:11:35.854Z,99920.50
2017-11-09T15:14:09.136Z,99922.75
2017-11-09T15:16:52.830Z,99935.24
2017-11-09T15:19:28.304Z,99938.80
2017-11-09T15:22:04.119Z,99935.98
2017-11-09T15:24:57.515Z,99936.38
2017-11-09T15:27:29.038Z,99939.81
2017-11-09T15:30:15.133Z,99945.80
2017-11-09T15:32:47.073Z,99942.19
2017-11-09T15:35:20.401Z,99939.66
2017-11-09T15:37:52.131Z,99942.87
2017-11-09T15:40:28.707Z,99944.20
2017-11-09T15:43:03.514Z,99962.00
2017-11-09T15:45:36.145Z,99962.40
2017-11-09T15:48:10.794Z,99951.73
2017-11-09T15:50:42.765Z,99966.94
2017-11-09T15:53:19.815Z,99958.29
2017-11-09T15:55:56.738Z,99968.83
2017-11-09T15:58:34.253Z,99962.84
2017-11-09T16:01:11.159Z,99965.13
2017-11-09T16:03:42.951Z,99972.17
2017-11-09T16:06:20.590Z,99973.78
2017-11-09T16:08:53.396Z,99968.86
2017-11-09T16:11:26.378Z,99965.00
2017-11-09T16:13:59.659Z,99970.69
2017-11-09T16:16:34.141Z,99975.20
2017-11-09T16:19:09.798Z,99977.45
2017-11-09T16:21:43.219Z,99972.59
2017-11-09T16:24:16.073Z,99983.53
2017-11-09T16:26:50.159Z,99983.94
2017-11-09T16:29:25.372Z,99976.61
2017-11-09T16:31:59.151Z,99988.41
2017-11-09T16:34:33.654Z,99989.21
2017-11-09T16:37:07.670Z,99979.63
2017-11-09T16:39:39.938Z,99973.71
2017-11-09T16:42:17.933Z,99980.02
2017-11-09T16:44:55.922Z,99975.48
2017-11-09T16:47:35.424Z,99972.36
2017-11-09T16:50:16.033Z,99974.95
2017-11-09T16:53:26.545Z,99973.27
2017-11-09T17:05:40.528Z,99947.53
2017-11-09T17:08:16.780Z,99944.67
2017-11-09T17:10:49.216Z,99938.15
2017-11-09T17:13:23.220Z,99941.92
2017-11-09T17:15:55.506Z,99941.53
2017-11-09T17:18:32.562Z,99943.30
2017-11-09T17:21:05.613Z,99941.29
2017-11-09T17:23:39.549Z,99939.73
2017-11-09T17:26:13.808Z,99935.10
2017-11-09T17:28:45.427Z,99934.17
2017-11-09T17:31:17.544Z,99942.97
2017-11-09T17:33:50.516Z,99943.62
2017-11-09T17:36:23.925Z,99939.50
2017-11-09T17:39:00.168Z,99934.19
2017-11-09T17:41:34.466Z,99929.38
2017-11-09T17:44:38.904Z,99920.86
2017-11-09T17:47:16.635Z,99933.80
2017-11-09T17:53:37.774Z,99934.45
2017-11-09T17:56:14.194Z,99929.90
2017-11-09T17:58:47.835Z,99928.97
2017-11-09T18:01:21.247Z,99924.58
2017-11-09T18:03:53.847Z,99919.13
2017-11-09T18:06:30.892Z,99923.78
2017-11-09T18:09:02.801Z,99934.02
2017-11-09T18:11:39.623Z,99926.27
2017-11-09T18:14:17.705Z,99910.68
2017-11-09T18:16:55.266Z,99913.22
2017-11-09T18:22:39.597Z,99929.97
2017-11-09T18:25:17.739Z,99923.82
2017-11-09T18:27:57.215Z,99926.17
2017-11-09T18:30:31.754Z,99918.81
2017-11-09T18:33:06.190Z,99931.44
2017-11-09T18:35:41.468Z,99933.92
2017-11-09T18:38:14.252Z,99928.05
2017-11-09T18:40:50.401Z,99934.03
2017-11-09T18:43:24.144Z,99926.25
2017-11-09T18:46:00.346Z,99930.25
2017-11-09T18:48:35.271Z,99938.40
2017-11-09T18:51:08.356Z,99945.34
2017-11-09T18:53:42.527Z,99944.77
2017-11-09T18:56:19.714Z,99945.48
2017-11-09T18:59:26.365Z,99955.45
2017-11-09T19:05:01.126Z,99943.17
2017-11-09T19:07:34.427Z,99946.61
2017-11-09T19:10:10.891Z,99949.69
2017-11-09T19:12:45.557Z,99939.56
2017-11-09T19:15:27.825Z,99936.36
2017-11-09T19:18:09.348Z,99935.70
2017-11-09T19:20:44.358Z,99932.22
2017-11-09T19:23:18.318Z,99926.58
2017-11-09T19:25:50.295Z,99928.05
2017-11-09T19:28:23.273Z,99924.53
2017-11-09T19:30:55.429Z,99920.26
2017-11-09T19:33:26.731Z,99914.78
2017-11-09T19:36:00.713Z,99912.28
2017-11-09T19:38:34.905Z,99933.62
2017-11-09T19:41:07.149Z,99933.48
2017-11-09T19:43:39.037Z,99938.30
2017-11-09T19:46:12.596Z,99947.68
2017-11-09T19:48:45.778Z,99950.48
2017-11-09T19:51:22.015Z,99965.45
2017-11-09T19:53:58.606Z,99966.64
2017-11-09T19:56:32.836Z,99970.92
2017-11-09T19:59:13.450Z,99972.39
2017-11-09T20:01:48.963Z,99971.19
2017-11-09T20:04:23.016Z,99969.42
2017-11-09T20:06:57.222Z,99974.09
2017-11-09T20:09:43.340Z,99972.99
2017-11-09T20:12:19.962Z,99975.80
2017-11-09T20:14:55.737Z,99976.97
2017-11-09T20:20:47.351Z,99967.11
2017-11-09T20:23:25.262Z,99978.00
2017-11-09T20:31:22.561Z,99978.70
2017-11-09T20:38:47.040Z,99971.14
2017-11-09T20:41:26.577Z,99968.59
2017-11-09T20:44:20.808Z,99962.67
2017-11-09T20:47:01.984Z,99963.84
2017-11-09T20:50:21.140Z,99955.02
2017-11-09T20:52:53.769Z,99961.83
2017-11-09T20:55:48.166Z,99958.75
2017-11-09T20:58:21.119Z,99947.39
2017-11-09T21:00:54.803Z,99956.08
2017-11-09T21:03:27.036Z,99952.07
2017-11-09T21:05:59.127Z,99948.46
2017-11-09T21:08:33.884Z,99941.21
2017-11-09T21:11:07.433Z,99945.35
2017-11-09T21:13:40.422Z,99943.21
2017-11-09T21:16:13.933Z,99946.02
2017-11-09T21:18:47.122Z,99939.64
2017-11-09T21:21:20.359Z,99941.25
2017-11-09T21:24:14.175Z,99943.48
2017-11-09T21:26:50.999Z,99941.45
2017-11-09T21:29:25.301Z,99936.06
2017-11-09T21:32:06.440Z,99939.60
2017-11-09T21:34:48.938Z,99939.13
2017-11-09T21:37:24.838Z,99931.81
2017-11-09T21:39:59.089Z,99919.19
2017-11-09T21:42:37.882Z,99911.64
2017-11-09T21:45:17.213Z,99903.25
2017-11-09T21:47:51.659Z,99899.02
2017-11-09T21:50:31.247Z,99909.05
2017-11-09T21:53:08.142Z,99905.59
2017-11-09T21:55:43.783Z,99908.03
2017-11-09T21:58:27.373Z,99904.41
2017-11-09T22:01:01.549Z,99915.22
2017-11-09T22:03:37.308Z,99914.69
2017-11-09T22:06:16.465Z,99923.77
2017-11-09T22:08:57.261Z,99928.99
2017-11-09T22:11:32.141Z,99937.66
2017-11-09T22:14:07.304Z,99930.84
2017-11-09T22:19:26.743Z,99913.28
2017-11-09T22:21:58.855Z,99908.59
2017-11-09T22:24:31.020Z,99900.73
2017-11-09T22:27:03.864Z,99900.06
2017-11-09T22:32:48.433Z,99910.56
2017-11-09T22:35:20.876Z,99914.67
2017-11-09T22:40:13.110Z,99906.14
2017-11-09T22:45:50.365Z,99903.58
2017-11-09T22:48:25.218Z,99884.14
2017-11-09T22:50:56.841Z,99893.98
2017-11-09T22:53:31.197Z,99881.05
2017-11-09T22:56:03.245Z,99885.20
2017-11-09T22:58:34.481Z,99875.88
2017-11-09T23:01:10.387Z,99880.77
2017-11-09T23:03:44.001Z,99877.58
2017-11-09T23:06:19.123Z,99873.19
2017-11-09T23:08:50.405Z,99865.84
2017-11-09T23:56:26.590Z,99781.84
2017-11-09T23:59:00.296Z,99779.98
